Time,TemperatureF,DewpointF,PressureIn,WindDirection,WindDirectionDegrees,WindSpeedMPH,WindSpeedGustMPH,Humidity,HourlyPrecipIn,Conditions,Clouds,dailyrainin,SoftwareType,DateUTC
2013-12-27 00:07:00,36.0,34.4,30.38,NE,45,0.0,-999.0,94,-99.99,,,0.00,Acu-Link.com,2013-12-27 08:07:00,
2013-12-27 00:22:00,36.5,34.7,30.39,NE,45,0.0,-999.0,93,-99.99,,,0.00,Acu-Link.com,2013-12-27 08:22:00,
2013-12-27 00:37:00,35.8,34.0,30.39,NE,45,0.0,-999.0,93,-99.99,,,0.00,Acu-Link.com,2013-12-27 08:37:00,
2013-12-27 00:52:00,35.1,34.1,30.39,NE,45,0.0,-999.0,96,-99.99,,,0.00,Acu-Link.com,2013-12-27 08:52:00,
2013-12-27 01:07:00,34.9,33.9,30.38,NE,45,0.0,-999.0,96,-99.99,,,0.00,Acu-Link.com,2013-12-27 09:07:00,
2013-12-27 01:22:00,35.2,34.4,30.38,NE,45,0.0,-999.0,97,-99.99,,,0.00,Acu-Link.com,2013-12-27 09:22:00,
2013-12-27 01:38:00,34.9,34.4,30.38,NE,45,0.0,-999.0,98,-99.99,,,0.00,Acu-Link.com,2013-12-27 09:38:00,
2013-12-27 01:53:00,34.9,34.4,30.39,NE,45,0.0,-999.0,98,-99.99,,,0.00,Acu-Link.com,2013-12-27 09:53:00,
2013-12-27 02:08:00,34.2,33.7,30.39,NE,45,0.0,-999.0,98,-99.99,,,0.00,Acu-Link.com,2013-12-27 10:08:00,
2013-12-27 02:24:00,34.2,33.7,30.39,NE,45,0.0,-999.0,98,-99.99,,,0.00,Acu-Link.com,2013-12-27 10:24:00,
2013-12-27 02:39:00,34.0,33.7,30.38,NE,45,0.0,-999.0,99,-99.99,,,0.00,Acu-Link.com,2013-12-27 10:39:00,
2013-12-27 02:54:00,33.4,33.1,30.39,NE,45,0.0,-999.0,99,-99.99,,,0.00,Acu-Link.com,2013-12-27 10:54:00,
2013-12-27 03:09:00,33.3,33.0,30.38,NE,45,0.0,-999.0,99,-99.99,,,0.00,Acu-Link.com,2013-12-27 11:09:00,
2013-12-27 03:25:00,32.9,32.7,30.38,NE,45,0.0,-999.0,99,-99.99,,,0.00,Acu-Link.com,2013-12-27 11:25:00,
2013-12-27 03:40:00,32.9,32.7,30.38,NE,45,0.0,-999.0,99,-99.99,,,0.00,Acu-Link.com,2013-12-27 11:40:00,
2013-12-27 03:55:00,32.5,32.3,30.38,NE,45,0.0,-999.0,99,-99.99,,,0.00,Acu-Link.com,2013-12-27 11:55:00,
2013-12-27 04:11:00,32.9,32.7,30.37,NE,45,0.0,-999.0,99,-99.99,,,0.00,Acu-Link.com,2013-12-27 12:11:00,
2013-12-27 04:26:00,32.7,32.5,30.36,NE,45,0.0,-999.0,99,-99.99,,,0.00,Acu-Link.com,2013-12-27 12:26:00,
2013-12-27 04:41:00,32.4,32.2,30.37,NE,45,0.0,-999.0,99,-99.99,,,0.00,Acu-Link.com,2013-12-27 12:41:00,
2013-12-27 04:57:00,33.1,32.8,30.37,NE,45,0.0,-999.0,99,-99.99,,,0.00,Acu-Link.com,2013-12-27 12:57:00,
2013-12-27 05:12:00,32.5,32.3,30.36,NE,45,0.0,-999.0,99,-99.99,,,0.00,Acu-Link.com,2013-12-27 13:12:00,
2013-12-27 05:27:00,32.0,31.8,30.37,NE,45,0.0,-999.0,99,-99.99,,,0.00,Acu-Link.com,2013-12-27 13:27:00,
2013-12-27 05:42:00,32.0,31.8,30.38,NE,45,0.0,-999.0,99,-99.99,,,0.00,Acu-Link.com,2013-12-27 13:42:00,
2013-12-27 05:58:00,32.0,31.8,30.37,NE,45,0.0,-999.0,99,-99.99,,,0.00,Acu-Link.com,2013-12-27 13:58:00,
2013-12-27 06:13:00,31.6,31.4,30.37,NE,45,0.0,-999.0,99,-99.99,,,0.00,Acu-Link.com,2013-12-27 14:13:00,
2013-12-27 06:28:00,31.8,31.6,30.37,NE,45,0.0,-999.0,99,-99.99,,,0.00,Acu-Link.com,2013-12-27 14:28:00,
2013-12-27 06:43:00,31.6,31.4,30.37,NE,45,0.0,-999.0,99,-99.99,,,0.00,Acu-Link.com,2013-12-27 14:43:00,
2013-12-27 06:59:00,31.5,31.3,30.38,NE,45,0.0,-999.0,99,-99.99,,,0.00,Acu-Link.com,2013-12-27 14:59:00,
2013-12-27 07:14:00,30.9,30.7,30.39,NE,45,0.0,-999.0,99,-99.99,,,0.00,Acu-Link.com,2013-12-27 15:14:00,
2013-12-27 07:29:00,31.6,31.4,30.39,NE,45,1.7,-999.0,99,-99.99,,,0.00,Acu-Link.com,2013-12-27 15:29:00,
2013-12-27 07:45:00,32.5,32.3,30.40,NE,45,0.0,-999.0,99,-99.99,,,0.00,Acu-Link.com,2013-12-27 15:45:00,
2013-12-27 08:00:00,34.0,33.7,30.40,NE,45,1.7,-999.0,99,-99.99,,,0.00,Acu-Link.com,2013-12-27 16:00:00,
2013-12-27 08:15:00,36.5,36.2,30.41,NE,45,2.2,-999.0,99,-99.99,,,0.00,Acu-Link.com,2013-12-27 16:15:00,
2013-12-27 08:30:00,38.7,38.4,30.41,NE,45,1.1,-999.0,99,-99.99,,,0.00,Acu-Link.com,2013-12-27 16:30:00,
2013-12-27 08:46:00,41.4,39.0,30.41,NE,45,2.2,-999.0,91,-99.99,,,0.00,Acu-Link.com,2013-12-27 16:46:00,
2013-12-27 09:01:00,42.6,37.8,30.41,ENE,67,2.7,-999.0,83,-99.99,,,0.00,Acu-Link.com,2013-12-27 17:01:00,
2013-12-27 09:16:00,45.7,38.6,30.41,ENE,67,3.2,-999.0,76,-99.99,,,0.00,Acu-Link.com,2013-12-27 17:16:00,
2013-12-27 09:32:00,49.5,40.1,30.40,ENE,67,1.7,-999.0,70,-99.99,,,0.00,Acu-Link.com,2013-12-27 17:32:00,
2013-12-27 09:47:00,48.7,40.1,30.41,ENE,67,1.7,-999.0,72,-99.99,,,0.00,Acu-Link.com,2013-12-27 17:47:00,
2013-12-27 10:02:00,50.4,41.0,30.40,ENE,67,1.7,-999.0,70,-99.99,,,0.00,Acu-Link.com,2013-12-27 18:02:00,
2013-12-27 10:18:00,51.1,41.3,30.40,ENE,67,1.7,-999.0,69,-99.99,,,0.00,Acu-Link.com,2013-12-27 18:18:00,
2013-12-27 10:33:00,53.1,42.8,30.39,ENE,67,0.0,-999.0,68,-99.99,,,0.00,Acu-Link.com,2013-12-27 18:33:00,
2013-12-27 10:48:00,52.5,41.9,30.39,ENE,67,1.1,-999.0,67,-99.99,,,0.00,Acu-Link.com,2013-12-27 18:48:00,
2013-12-27 11:04:00,53.8,42.7,30.38,NE,45,2.7,-999.0,66,-99.99,,,0.00,Acu-Link.com,2013-12-27 19:04:00,
2013-12-27 11:19:00,55.4,43.4,30.37,East,90,1.7,-999.0,64,-99.99,,,0.00,Acu-Link.com,2013-12-27 19:19:00,
2013-12-27 11:34:00,55.6,43.6,30.36,East,90,2.2,-999.0,64,-99.99,,,0.00,Acu-Link.com,2013-12-27 19:34:00,
2013-12-27 11:50:00,58.1,43.8,30.35,East,90,1.7,-999.0,59,-99.99,,,0.00,Acu-Link.com,2013-12-27 19:50:00,
2013-12-27 12:05:00,59.9,44.6,30.34,East,90,0.0,-999.0,57,-99.99,,,0.00,Acu-Link.com,2013-12-27 20:05:00,
2013-12-27 12:21:00,60.6,44.3,30.34,East,90,0.0,-999.0,55,-99.99,,,0.00,Acu-Link.com,2013-12-27 20:21:00,
2013-12-27 12:36:00,64.0,45.0,30.33,ENE,67,1.7,-999.0,50,-99.99,,,0.00,Acu-Link.com,2013-12-27 20:36:00,
2013-12-27 12:51:00,66.6,45.7,30.32,ENE,67,2.2,-999.0,47,-99.99,,,0.00,Acu-Link.com,2013-12-27 20:51:00,
2013-12-27 13:07:00,66.9,45.4,30.30,East,90,1.7,-999.0,46,-99.99,,,0.00,Acu-Link.com,2013-12-27 21:07:00,
2013-12-27 13:22:00,65.3,45.6,30.29,East,90,0.0,-999.0,49,-99.99,,,0.00,Acu-Link.com,2013-12-27 21:22:00,
2013-12-27 13:37:00,68.4,45.6,30.29,ENE,67,1.1,-999.0,44,-99.99,,,0.00,Acu-Link.com,2013-12-27 21:37:00,
2013-12-27 13:52:00,65.3,44.5,30.28,West,270,0.0,-999.0,47,-99.99,,,0.00,Acu-Link.com,2013-12-27 21:52:00,
2013-12-27 14:08:00,66.9,44.9,30.28,West,270,2.2,-999.0,45,-99.99,,,0.00,Acu-Link.com,2013-12-27 22:08:00,
2013-12-27 14:23:00,67.1,45.6,30.27,West,270,1.1,-999.0,46,-99.99,,,0.00,Acu-Link.com,2013-12-27 22:23:00,
2013-12-27 14:38:00,68.0,45.9,30.26,NE,45,1.1,-999.0,45,-99.99,,,0.00,Acu-Link.com,2013-12-27 22:38:00,
2013-12-27 14:54:00,65.3,45.1,30.26,NE,45,1.7,-999.0,48,-99.99,,,0.00,Acu-Link.com,2013-12-27 22:54:00,
2013-12-27 15:09:00,65.7,45.5,30.26,NE,45,0.0,-999.0,48,-99.99,,,0.00,Acu-Link.com,2013-12-27 23:09:00,
2013-12-27 15:24:00,64.4,44.8,30.26,NE,45,1.1,-999.0,49,-99.99,,,0.00,Acu-Link.com,2013-12-27 23:24:00,
2013-12-27 15:40:00,63.7,44.7,30.26,NE,45,2.7,-999.0,50,-99.99,,,0.00,Acu-Link.com,2013-12-27 23:40:00,
2013-12-27 15:55:00,62.4,44.0,30.26,NE,45,1.7,-999.0,51,-99.99,,,0.00,Acu-Link.com,2013-12-27 23:55:00,
2013-12-27 16:10:00,60.6,43.9,30.26,WSW,247,0.0,-999.0,54,-99.99,,,0.00,Acu-Link.com,2013-12-28 00:10:00,
2013-12-27 16:26:00,59.7,44.0,30.27,WSW,247,1.7,-999.0,56,-99.99,,,0.00,Acu-Link.com,2013-12-28 00:26:00,
2013-12-27 16:41:00,58.6,43.9,30.26,WSW,247,0.0,-999.0,58,-99.99,,,0.00,Acu-Link.com,2013-12-28 00:41:00,
2013-12-27 16:56:00,57.2,43.4,30.26,WSW,247,0.0,-999.0,60,-99.99,,,0.00,Acu-Link.com,2013-12-28 00:56:00,
2013-12-27 17:12:00,55.9,43.1,30.27,WSW,247,1.7,-999.0,62,-99.99,,,0.00,Acu-Link.com,2013-12-28 01:12:00,
2013-12-27 17:27:00,55.2,42.8,30.27,WSW,247,1.7,-999.0,63,-99.99,,,0.00,Acu-Link.com,2013-12-28 01:27:00,
2013-12-27 17:42:00,54.3,42.4,30.28,WSW,247,1.1,-999.0,64,-99.99,,,0.00,Acu-Link.com,2013-12-28 01:42:00,
2013-12-27 17:57:00,53.4,42.3,30.27,WSW,247,1.7,-999.0,66,-99.99,,,0.00,Acu-Link.com,2013-12-28 01:57:00,
2013-12-27 18:13:00,52.9,42.2,30.27,WSW,247,0.0,-999.0,67,-99.99,,,0.00,Acu-Link.com,2013-12-28 02:13:00,
2013-12-27 18:28:00,52.5,42.2,30.28,WSW,247,0.0,-999.0,68,-99.99,,,0.00,Acu-Link.com,2013-12-28 02:28:00,
2013-12-27 18:43:00,51.3,41.9,30.28,WSW,247,0.0,-999.0,70,-99.99,,,0.00,Acu-Link.com,2013-12-28 02:43:00,
2013-12-27 18:59:00,50.9,41.8,30.28,WSW,247,0.0,-999.0,71,-99.99,,,0.00,Acu-Link.com,2013-12-28 02:59:00,
2013-12-27 19:14:00,50.4,41.7,30.28,WSW,247,0.0,-999.0,72,-99.99,,,0.00,Acu-Link.com,2013-12-28 03:14:00,
2013-12-27 19:30:00,49.3,41.4,30.28,WSW,247,0.0,-999.0,74,-99.99,,,0.00,Acu-Link.com,2013-12-28 03:30:00,
2013-12-27 19:45:00,49.3,41.4,30.28,WSW,247,0.0,-999.0,74,-99.99,,,0.00,Acu-Link.com,2013-12-28 03:45:00,
2013-12-27 20:00:00,48.6,40.7,30.28,WSW,247,0.0,-999.0,74,-99.99,,,0.00,Acu-Link.com,2013-12-28 04:00:00,
2013-12-27 20:16:00,48.0,40.8,30.28,WSW,247,0.0,-999.0,76,-99.99,,,0.00,Acu-Link.com,2013-12-28 04:16:00,
2013-12-27 20:31:00,47.8,40.9,30.27,WSW,247,1.7,-999.0,77,-99.99,,,0.00,Acu-Link.com,2013-12-28 04:31:00,
2013-12-27 20:46:00,47.8,40.6,30.29,WSW,247,0.0,-999.0,76,-99.99,,,0.00,Acu-Link.com,2013-12-28 04:46:00,
2013-12-27 21:02:00,47.1,40.3,30.28,WSW,247,0.0,-999.0,77,-99.99,,,0.00,Acu-Link.com,2013-12-28 05:02:00,
2013-12-27 21:17:00,46.8,40.3,30.28,WSW,247,0.0,-999.0,78,-99.99,,,0.00,Acu-Link.com,2013-12-28 05:17:00,
2013-12-27 21:32:00,46.2,40.1,30.27,WSW,247,0.0,-999.0,79,-99.99,,,0.00,Acu-Link.com,2013-12-28 05:32:00,
2013-12-27 21:47:00,46.4,40.2,30.29,WSW,247,2.2,-999.0,79,-99.99,,,0.00,Acu-Link.com,2013-12-28 05:47:00,
2013-12-27 22:03:00,45.1,39.3,30.28,WSW,247,0.0,-999.0,80,-99.99,,,0.00,Acu-Link.com,2013-12-28 06:03:00,
2013-12-27 22:18:00,45.0,39.5,30.29,WSW,247,0.0,-999.0,81,-99.99,,,0.00,Acu-Link.com,2013-12-28 06:18:00,
2013-12-27 22:34:00,44.8,39.6,30.29,WSW,247,0.0,-999.0,82,-99.99,,,0.00,Acu-Link.com,2013-12-28 06:34:00,
2013-12-27 22:49:00,44.2,39.4,30.29,WSW,247,0.0,-999.0,83,-99.99,,,0.00,Acu-Link.com,2013-12-28 06:49:00,
2013-12-27 23:04:00,44.2,39.4,30.28,WSW,247,0.0,-999.0,83,-99.99,,,0.00,Acu-Link.com,2013-12-28 07:04:00,
2013-12-27 23:20:00,44.2,39.4,30.27,WSW,247,0.0,-999.0,83,-99.99,,,0.00,Acu-Link.com,2013-12-28 07:20:00,
2013-12-27 23:35:00,44.4,39.6,30.27,WSW,247,0.0,-999.0,83,-99.99,,,0.00,Acu-Link.com,2013-12-28 07:35:00,
2013-12-27 23:50:00,43.7,38.9,30.27,WSW,247,0.0,-999.0,83,-99.99,,,0.00,Acu-Link.com,2013-12-28 07:50:00,